createdAt,value
2018-12-29T00:01:36.214Z,-1.30
2018-12-29T00:04:40.923Z,-1.30
2018-12-29T00:07:51.081Z,-1.40
2018-12-29T00:10:42.159Z,-1.40
2018-12-29T00:13:44.599Z,-1.30
2018-12-29T00:16:36.519Z,-1.40
2018-12-29T00:19:46.770Z,-1.50
2018-12-29T00:22:49.866Z,-1.40
2018-12-29T00:26:00.291Z,-1.50
2018-12-29T00:29:02.715Z,-1.60
2018-12-29T00:31:53.831Z,-1.50
2018-12-29T00:34:57.340Z,-1.50
2018-12-29T00:38:07.389Z,-1.50
2018-12-29T00:41:10.486Z,-1.40
2018-12-29T00:44:03.641Z,-1.50
2018-12-29T00:47:06.393Z,-1.50
2018-12-29T00:50:16.591Z,-1.50
2018-12-29T00:56:57.110Z,-1.50
2018-12-29T00:59:59.730Z,-1.60
2018-12-29T01:03:09.999Z,-1.60
2018-12-29T01:06:13.101Z,-1.70
2018-12-29T01:12:40.034Z,-1.60
2018-12-29T01:15:24.141Z,-1.60
2018-12-29T01:18:26.693Z,-1.60
2018-12-29T01:21:17.729Z,-1.70
2018-12-29T01:24:20.565Z,-1.70
2018-12-29T01:27:30.759Z,-1.60
2018-12-29T01:30:33.826Z,-1.60
2018-12-29T01:33:26.951Z,-1.60
2018-12-29T01:36:18.067Z,-1.60
2018-12-29T01:39:20.659Z,-1.60
2018-12-29T01:42:13.349Z,-1.70
2018-12-29T01:45:17.499Z,-1.80
2018-12-29T01:51:36.417Z,-1.60
2018-12-29T01:54:30.351Z,-1.60
2018-12-29T01:57:40.373Z,-1.50
2018-12-29T02:00:43.360Z,-1.40
2018-12-29T02:03:36.437Z,-1.40
2018-12-29T02:06:39.858Z,-1.40
2018-12-29T02:09:49.955Z,-1.60
2018-12-29T02:12:52.592Z,-1.80
2018-12-29T02:16:02.864Z,-1.70
2018-12-29T02:19:05.300Z,-1.60
2018-12-29T02:22:15.339Z,-1.70
2018-12-29T02:24:59.289Z,-1.70
2018-12-29T02:28:09.244Z,-1.80
2018-12-29T02:31:11.977Z,-1.70
2018-12-29T02:34:05.838Z,-1.70
2018-12-29T02:36:49.769Z,-1.70
2018-12-29T02:39:42.133Z,-1.70
2018-12-29T02:42:26.189Z,-1.80
2018-12-29T02:45:36.218Z,-1.80
2018-12-29T02:48:39.190Z,-1.60
2018-12-29T02:51:53.049Z,-1.60
2018-12-29T02:54:55.472Z,-1.70
2018-12-29T02:57:46.329Z,-1.70
2018-12-29T03:00:30.040Z,-1.70
2018-12-29T03:03:22.261Z,-1.70
2018-12-29T03:06:24.920Z,-1.80
2018-12-29T03:09:35.005Z,-1.80
2018-12-29T03:12:18.149Z,-1.80
2018-12-29T03:15:28.230Z,-1.90
2018-12-29T03:18:30.550Z,-1.80
2018-12-29T03:21:21.439Z,-1.80
2018-12-29T03:24:24.437Z,-1.90
2018-12-29T03:27:34.469Z,-2.10
2018-12-29T03:30:37.159Z,-2.00
2018-12-29T03:33:47.237Z,-2.00
2018-12-29T03:36:31.117Z,-2.20
2018-12-29T03:39:24.509Z,-2.30
2018-12-29T03:42:27.165Z,-2.30
2018-12-29T03:45:37.170Z,-2.10
2018-12-29T03:48:43.877Z,-2.40
2018-12-29T03:51:53.850Z,-2.30
2018-12-29T03:54:56.639Z,-2.30
2018-12-29T03:58:06.610Z,-2.20
2018-12-29T04:01:09.242Z,-2.20
2018-12-29T04:04:19.230Z,-2.30
2018-12-29T04:07:03.214Z,-2.40
2018-12-29T04:10:17.057Z,-2.30
2018-12-29T04:13:01.858Z,-2.20
2018-12-29T04:16:11.929Z,-2.20
2018-12-29T04:19:14.189Z,-2.10
2018-12-29T04:22:07.937Z,-2.10
2018-12-29T04:25:10.050Z,-2.10
2018-12-29T04:28:01.369Z,-2.10
2018-12-29T04:31:04.158Z,-2.10
2018-12-29T04:33:57.618Z,-2.20
2018-12-29T04:37:00.570Z,-2.10
2018-12-29T04:40:10.566Z,-2.20
2018-12-29T04:42:54.611Z,-2.30
2018-12-29T04:45:47.334Z,-2.20
2018-12-29T04:48:49.757Z,-2.20
2018-12-29T04:51:52.777Z,-2.00
2018-12-29T04:54:45.470Z,-2.20
2018-12-29T04:57:29.356Z,-2.30
2018-12-29T05:00:32.470Z,-2.10
2018-12-29T05:03:42.445Z,-2.10
2018-12-29T05:06:45.290Z,-2.20
2018-12-29T05:09:36.199Z,-2.10
2018-12-29T05:12:39.069Z,-2.10
2018-12-29T05:15:30.034Z,-2.10
2018-12-29T05:18:32.702Z,-2.10
2018-12-29T05:21:23.695Z,-2.10
2018-12-29T05:24:26.317Z,-2.10
2018-12-29T05:27:36.461Z,-2.10
2018-12-29T05:30:40.375Z,-2.10
2018-12-29T05:37:38.402Z,-2.20
2018-12-29T05:40:40.974Z,-2.20
2018-12-29T05:43:44.091Z,-2.10
2018-12-29T05:46:55.255Z,-2.20
2018-12-29T05:49:40.164Z,-2.20
2018-12-29T05:52:44.474Z,-2.30
2018-12-29T05:55:47.518Z,-2.30
2018-12-29T05:58:38.551Z,-2.30
2018-12-29T06:01:41.550Z,-2.10
2018-12-29T06:04:51.529Z,-2.40
2018-12-29T06:07:54.414Z,-2.30
2018-12-29T06:10:45.405Z,-2.40
2018-12-29T06:13:29.038Z,-2.30
2018-12-29T06:16:19.934Z,-2.30
2018-12-29T06:19:03.884Z,-2.30
2018-12-29T06:21:54.679Z,-2.30
2018-12-29T06:24:40.167Z,-2.30
2018-12-29T06:27:31.754Z,-2.40
2018-12-29T06:30:16.553Z,-2.40
2018-12-29T06:36:55.269Z,-2.20
2018-12-29T06:39:46.177Z,-2.30
2018-12-29T06:42:49.018Z,-2.40
2018-12-29T06:46:00.647Z,-2.40
2018-12-29T06:49:02.990Z,-2.50
2018-12-29T06:51:53.050Z,-2.50
2018-12-29T06:54:55.869Z,-2.40
2018-12-29T06:58:08.458Z,-2.30
2018-12-29T07:01:11.071Z,-2.30
2018-12-29T07:04:21.030Z,-2.30
2018-12-29T07:07:23.613Z,-2.30
2018-12-29T07:10:34.013Z,-2.30
2018-12-29T07:13:18.203Z,-2.30
2018-12-29T07:16:11.213Z,-2.30
2018-12-29T07:18:54.970Z,-2.50
2018-12-29T07:22:05.389Z,-2.40
2018-12-29T07:25:08.490Z,-2.80
2018-12-29T07:28:01.294Z,-2.60
2018-12-29T07:31:04.131Z,-2.50
2018-12-29T07:33:55.077Z,-2.40
2018-12-29T07:36:58.318Z,-2.40
2018-12-29T07:39:49.234Z,-2.40
2018-12-29T07:42:51.804Z,-2.40
2018-12-29T07:45:46.073Z,-2.40
2018-12-29T07:48:51.410Z,-2.50
2018-12-29T07:52:01.511Z,-2.40
2018-12-29T07:55:07.957Z,-2.40
2018-12-29T07:57:58.810Z,-2.30
2018-12-29T08:01:01.930Z,-2.30
2018-12-29T08:03:52.752Z,-2.20
2018-12-29T08:06:55.123Z,-2.20
2018-12-29T08:09:46.012Z,-2.10
2018-12-29T08:12:48.670Z,-2.20
2018-12-29T08:15:39.570Z,-2.20
2018-12-29T08:18:42.315Z,-2.30
2018-12-29T08:21:52.302Z,-2.30
2018-12-29T08:24:55.229Z,-2.20
2018-12-29T08:27:47.249Z,-2.10
2018-12-29T08:30:50.092Z,-2.00
2018-12-29T08:34:00.177Z,-2.10
2018-12-29T08:37:02.873Z,-2.30
2018-12-29T08:39:53.809Z,-2.00
2018-12-29T08:42:56.282Z,-2.00
2018-12-29T08:45:48.089Z,-2.00
2018-12-29T08:48:50.653Z,-2.00
2018-12-29T08:52:00.673Z,-1.90
2018-12-29T08:55:03.601Z,-1.90
2018-12-29T08:58:13.489Z,-1.80
2018-12-29T09:00:57.010Z,-1.70
2018-12-29T09:04:14.313Z,-1.60
2018-12-29T09:06:57.450Z,-1.60
2018-12-29T09:09:50.205Z,-1.60
2018-12-29T09:12:34.089Z,-1.60
2018-12-29T09:15:27.285Z,-1.60
2018-12-29T09:18:29.470Z,-1.70
2018-12-29T09:21:45.588Z,-1.70
2018-12-29T09:24:28.990Z,-1.70
2018-12-29T09:27:20.298Z,-1.70
2018-12-29T09:30:11.253Z,-1.70
2018-12-29T09:33:13.927Z,-1.70
2018-12-29T09:36:04.835Z,-1.60
2018-12-29T09:39:08.314Z,-1.60
2018-12-29T09:41:59.210Z,-1.60
2018-12-29T09:44:42.619Z,-1.80
2018-12-29T09:47:46.497Z,-1.80
2018-12-29T09:50:38.679Z,-1.60
2018-12-29T09:53:23.356Z,-1.60
2018-12-29T09:56:07.104Z,-1.60
2018-12-29T09:58:58.012Z,-1.60
2018-12-29T10:02:00.969Z,-1.60
2018-12-29T10:05:03.932Z,-1.50
2018-12-29T10:08:16.417Z,-1.40
2018-12-29T10:11:19.027Z,-1.40
2018-12-29T10:17:37.749Z,-1.40
2018-12-29T10:20:30.810Z,-1.40
2018-12-29T10:23:37.854Z,-1.30
2018-12-29T10:26:47.918Z,-1.20
2018-12-29T10:29:50.410Z,-1.00
2018-12-29T10:32:41.265Z,-1.10
2018-12-29T10:35:32.145Z,-1.10
2018-12-29T10:38:38.693Z,-0.80
2018-12-29T10:41:41.455Z,-0.70
2018-12-29T10:44:35.477Z,-0.60
2018-12-29T10:47:20.270Z,-0.50
2018-12-29T10:50:11.252Z,-0.50
2018-12-29T10:53:14.415Z,-0.50
2018-12-29T10:56:17.689Z,-0.40
2018-12-29T10:59:08.569Z,-0.30
2018-12-29T11:02:10.668Z,-0.20
2018-12-29T11:05:13.423Z,-0.20
2018-12-29T11:08:04.322Z,-0.10
2018-12-29T11:11:06.543Z,-0.10
2018-12-29T11:14:16.344Z,-0.10
2018-12-29T11:17:19.300Z,0.00
2018-12-29T11:20:29.216Z,0.00
2018-12-29T11:23:32.476Z,0.10
2018-12-29T11:26:42.368Z,0.10
2018-12-29T11:29:45.095Z,0.20
2018-12-29T11:32:35.970Z,0.20
2018-12-29T11:35:38.295Z,0.30
2018-12-29T11:38:48.177Z,0.30
2018-12-29T11:41:55.819Z,0.30
2018-12-29T11:44:46.662Z,0.20
2018-12-29T11:47:53.032Z,0.20
2018-12-29T11:50:45.989Z,0.30
2018-12-29T11:53:49.049Z,0.30
2018-12-29T11:56:35.697Z,0.40
2018-12-29T11:59:48.137Z,0.50
2018-12-29T12:02:51.773Z,0.50
2018-12-29T12:05:54.277Z,0.60
2018-12-29T12:08:47.212Z,0.60
2018-12-29T12:11:49.933Z,0.70
2018-12-29T12:14:40.735Z,0.70
2018-12-29T12:17:43.415Z,0.70
2018-12-29T12:20:53.335Z,0.80
2018-12-29T12:23:56.494Z,0.90
2018-12-29T12:26:47.290Z,0.90
2018-12-29T12:29:30.692Z,1.00
2018-12-29T12:32:23.564Z,1.20
2018-12-29T12:35:27.342Z,1.20
2018-12-29T12:38:18.164Z,1.30
2018-12-29T12:41:21.063Z,1.40
2018-12-29T12:44:13.498Z,1.40
2018-12-29T12:47:18.013Z,1.40
2018-12-29T12:50:08.910Z,1.50
2018-12-29T12:53:12.983Z,1.50
2018-12-29T12:56:23.341Z,1.40
2018-12-29T12:59:26.158Z,1.40
2018-12-29T13:02:20.118Z,1.50
2018-12-29T13:05:23.337Z,1.60
2018-12-29T13:08:33.256Z,1.60
2018-12-29T13:11:16.295Z,1.60
2018-12-29T13:14:26.566Z,1.60
2018-12-29T13:17:28.870Z,1.60
2018-12-29T13:20:19.676Z,1.50
2018-12-29T13:23:06.775Z,1.70
2018-12-29T13:25:57.568Z,1.60
2018-12-29T13:29:00.057Z,1.60
2018-12-29T13:31:52.136Z,1.80
2018-12-29T13:34:55.261Z,1.90
2018-12-29T13:37:46.437Z,1.80
2018-12-29T13:40:49.335Z,1.70
2018-12-29T13:43:41.534Z,1.70
2018-12-29T13:46:44.554Z,1.70
2018-12-29T13:49:35.466Z,1.80
2018-12-29T13:52:19.180Z,1.80
2018-12-29T13:55:13.573Z,1.80
2018-12-29T13:57:59.895Z,1.90
2018-12-29T14:00:45.034Z,1.80
2018-12-29T14:03:28.934Z,1.80
2018-12-29T14:06:19.696Z,1.90
2018-12-29T14:09:24.348Z,1.90
2018-12-29T14:12:18.094Z,2.10
2018-12-29T14:15:20.813Z,2.10
2018-12-29T14:18:11.770Z,1.90
2018-12-29T14:21:14.831Z,1.80
2018-12-29T14:24:05.633Z,1.80
2018-12-29T14:27:08.404Z,1.90
2018-12-29T14:30:00.188Z,1.90
2018-12-29T14:33:02.854Z,1.80
2018-12-29T14:36:18.304Z,1.70
2018-12-29T14:39:21.731Z,1.70
2018-12-29T14:45:35.651Z,1.70
2018-12-29T14:48:35.833Z,1.40
2018-12-29T14:51:34.090Z,1.20
2018-12-29T14:54:44.050Z,1.50
2018-12-29T14:57:46.925Z,1.60
2018-12-29T15:00:32.100Z,1.40
2018-12-29T15:03:23.311Z,1.30
2018-12-29T15:06:26.410Z,0.90
2018-12-29T15:09:18.252Z,0.80
2018-12-29T15:12:22.694Z,0.70
2018-12-29T15:15:26.271Z,0.70
2018-12-29T15:18:43.342Z,0.60
2018-12-29T15:21:40.635Z,0.60
2018-12-29T15:24:32.950Z,0.50
2018-12-29T15:27:16.775Z,0.70
2018-12-29T15:30:26.906Z,0.70
2018-12-29T15:33:32.066Z,0.70
2018-12-29T15:36:23.766Z,0.60
2018-12-29T15:39:27.029Z,0.50
2018-12-29T15:42:18.618Z,0.50
2018-12-29T15:45:21.648Z,0.30
2018-12-29T15:48:31.993Z,0.20
2018-12-29T15:51:34.912Z,0.10
2018-12-29T15:54:26.206Z,0.00
2018-12-29T15:57:30.327Z,-0.10
2018-12-29T16:00:15.304Z,0.00
2018-12-29T16:03:18.170Z,0.00
2018-12-29T16:06:53.017Z,-0.10
2018-12-29T16:09:59.630Z,-0.20
2018-12-29T16:13:09.741Z,-0.30
2018-12-29T16:16:12.439Z,-0.40
2018-12-29T16:19:23.153Z,-0.40
2018-12-29T16:22:26.311Z,-0.40
2018-12-29T16:25:17.198Z,-0.50
2018-12-29T16:28:19.600Z,-0.40
2018-12-29T16:31:14.864Z,-0.50
2018-12-29T16:34:17.792Z,-0.50
2018-12-29T16:37:27.832Z,-0.50
2018-12-29T16:40:29.933Z,-0.40
2018-12-29T16:43:39.733Z,-0.40
2018-12-29T16:46:42.380Z,-0.40
2018-12-29T16:49:52.333Z,-0.40
2018-12-29T16:52:56.432Z,-0.30
2018-12-29T16:55:47.490Z,-0.30
2018-12-29T16:58:50.387Z,-0.40
2018-12-29T17:01:42.376Z,-0.40
2018-12-29T17:04:45.379Z,-0.40
2018-12-29T17:07:55.465Z,-0.40
2018-12-29T17:10:46.489Z,-0.30
2018-12-29T17:13:49.379Z,-0.20
2018-12-29T17:16:59.556Z,-0.20
2018-12-29T17:20:02.341Z,-0.20
2018-12-29T17:23:12.800Z,-0.20
2018-12-29T17:26:16.976Z,-0.30
2018-12-29T17:29:09.576Z,-0.40
2018-12-29T17:32:12.006Z,-0.30
2018-12-29T17:35:04.168Z,-0.40
2018-12-29T17:38:14.149Z,-0.50
2018-12-29T17:41:43.271Z,-0.50
2018-12-29T17:44:34.245Z,-0.50
2018-12-29T17:47:44.373Z,-0.50
2018-12-29T17:50:35.414Z,-0.50
2018-12-29T17:53:59.552Z,-0.60
2018-12-29T17:56:52.855Z,-0.60
2018-12-29T18:00:03.219Z,-0.60
2018-12-29T18:03:06.171Z,-0.70
2018-12-29T18:05:54.349Z,-0.60
2018-12-29T18:09:05.356Z,-0.60
2018-12-29T18:12:16.329Z,-0.60
2018-12-29T18:15:24.270Z,-0.60
2018-12-29T18:18:55.228Z,-0.60
2018-12-29T18:21:57.672Z,-0.60
2018-12-29T18:24:49.046Z,-0.60
2018-12-29T18:27:40.186Z,-0.50
2018-12-29T18:30:52.938Z,-0.50
2018-12-29T18:34:01.046Z,-0.60
2018-12-29T18:37:35.286Z,-0.60
2018-12-29T18:40:41.439Z,-0.60
2018-12-29T18:47:15.045Z,-0.60
2018-12-29T18:50:06.898Z,-0.60
2018-12-29T18:53:17.203Z,-0.60
2018-12-29T18:56:27.280Z,-0.50
2018-12-29T18:59:37.615Z,-0.60
2018-12-29T19:02:28.909Z,-0.50
2018-12-29T19:05:32.026Z,-0.40
2018-12-29T19:09:01.232Z,-0.40
2018-12-29T19:12:11.175Z,-0.40
2018-12-29T19:14:58.463Z,-0.40
2018-12-29T19:18:02.358Z,-0.30
2018-12-29T19:21:12.966Z,-0.40
2018-12-29T19:24:17.638Z,-0.40
2018-12-29T19:27:10.044Z,-0.50
2018-12-29T19:30:14.228Z,-0.50
2018-12-29T19:33:26.307Z,-0.40
2018-12-29T19:36:30.806Z,-0.50
2018-12-29T19:39:22.929Z,-0.50
2018-12-29T19:42:26.100Z,-0.60
2018-12-29T19:45:17.392Z,-0.50
2018-12-29T19:48:22.248Z,-0.60
2018-12-29T19:51:14.681Z,-0.80
2018-12-29T19:54:19.912Z,-0.70
2018-12-29T19:57:30.447Z,-0.50
2018-12-29T20:00:34.651Z,-0.60
2018-12-29T20:03:28.396Z,-0.20
2018-12-29T20:06:31.559Z,0.30
2018-12-29T20:09:22.936Z,-0.30
2018-12-29T20:12:14.547Z,-0.50
2018-12-29T20:15:17.374Z,-0.60
2018-12-29T20:18:28.278Z,-0.70
2018-12-29T20:21:32.529Z,-0.70
2018-12-29T20:24:43.100Z,-0.80
2018-12-29T20:27:46.579Z,-0.70
2018-12-29T20:31:10.635Z,-0.70
2018-12-29T20:34:01.267Z,-0.70
2018-12-29T20:37:11.879Z,-0.70
2018-12-29T20:40:16.477Z,-0.80
2018-12-29T20:43:09.440Z,-0.80
2018-12-29T20:46:01.150Z,-0.70
2018-12-29T20:49:11.622Z,-0.50
2018-12-29T20:52:21.860Z,-0.50
2018-12-29T20:55:33.247Z,-0.60
2018-12-29T20:58:39.088Z,-0.70
2018-12-29T21:01:30.826Z,-0.70
2018-12-29T21:04:35.046Z,-0.80
2018-12-29T21:07:37.887Z,-0.70
2018-12-29T21:10:32.136Z,-0.70
2018-12-29T21:13:34.849Z,-0.40
2018-12-29T21:16:29.310Z,0.10
2018-12-29T21:19:31.731Z,0.10
2018-12-29T21:22:42.307Z,-0.30
2018-12-29T21:25:45.687Z,-0.50
2018-12-29T21:28:38.004Z,-0.60
2018-12-29T21:31:40.788Z,-0.60
2018-12-29T21:34:32.811Z,-0.60
2018-12-29T21:37:37.359Z,0.00
2018-12-29T21:43:32.670Z,1.40
2018-12-29T21:46:23.771Z,0.70
2018-12-29T21:49:15.155Z,-0.10
2018-12-29T21:52:18.161Z,-0.40
2018-12-29T21:55:28.576Z,-0.50
2018-12-29T21:58:31.299Z,-0.50
2018-12-29T22:01:41.608Z,-0.40
2018-12-29T22:04:51.598Z,-0.50
2018-12-29T22:07:54.285Z,-0.50
2018-12-29T22:11:05.115Z,-0.40
2018-12-29T22:14:07.869Z,-0.50
2018-12-29T22:17:17.988Z,-0.40
2018-12-29T22:20:09.518Z,-0.40
2018-12-29T22:23:12.591Z,-0.60
2018-12-29T22:26:22.787Z,-0.70
2018-12-29T22:29:25.386Z,-0.70
2018-12-29T22:32:35.505Z,-0.60
2018-12-29T22:35:38.508Z,-0.60
2018-12-29T22:38:30.014Z,-0.50
2018-12-29T22:41:32.745Z,-0.50
2018-12-29T22:44:23.977Z,-0.50
2018-12-29T22:47:28.465Z,-0.60
2018-12-29T22:50:41.155Z,-0.70
2018-12-29T22:53:43.065Z,-0.80
2018-12-29T22:56:34.065Z,-0.70
2018-12-29T22:59:38.297Z,-0.70
2018-12-29T23:02:30.208Z,-0.80
2018-12-29T23:05:33.086Z,-0.80
2018-12-29T23:08:36.050Z,-0.70
2018-12-29T23:11:46.293Z,-0.90
2018-12-29T23:14:37.668Z,-0.90
2018-12-29T23:17:42.315Z,-0.90
2018-12-29T23:20:34.905Z,-0.80
2018-12-29T23:23:37.793Z,-0.90
2018-12-29T23:26:28.765Z,-1.00
2018-12-29T23:29:31.845Z,-1.00
2018-12-29T23:32:41.952Z,-0.90
2018-12-29T23:35:44.765Z,-0.90
2018-12-29T23:38:35.738Z,-0.80
2018-12-29T23:41:38.652Z,-0.70
2018-12-29T23:44:29.532Z,-0.60
2018-12-29T23:47:32.312Z,-0.50
2018-12-29T23:50:42.257Z,-0.40
2018-12-29T23:53:33.886Z,-0.30
2018-12-29T23:56:45.566Z,-0.30
2018-12-29T23:59:48.717Z,-0.40
